Time;durP1;ratioP1;P1;durP2;ratioP2;P2;SDS_P1;SDS_P2;PMS_P1;PMS_P2;Temp;Humidity;BMP_temperature;BMP_pressure;BME280_temperature;BME280_humidity;BME280_pressure;Samples;Min_cycle;Max_cycle;Signal;HPM_P1;HPM_P2
2023/08/28 00:01:41;;;;;;;;;0.50;0.25;;;;;18.37;69.71;100965.84;5055363;28;46125;-75
2023/08/28 00:04:07;;;;;;;;;1.00;1.00;;;;;18.40;69.72;100971.91;5058577;28;45523;-74
2023/08/28 00:06:32;;;;;;;;;1.00;0.50;;;;;18.35;70.01;100974.03;5060489;28;45304;-75
2023/08/28 00:08:57;;;;;;;;;1.00;0.75;;;;;18.39;70.00;100975.56;5059672;28;52435;-75
2023/08/28 00:11:23;;;;;;;;;1.50;1.50;;;;;18.36;69.92;100973.09;5059293;28;59538;-75
2023/08/28 00:13:48;;;;;;;;;0.50;0.50;;;;;18.38;69.77;100975.69;5051162;28;45521;-74
2023/08/28 00:16:13;;;;;;;;;2.00;0.75;;;;;18.39;69.69;100970.16;5056493;28;45492;-73
2023/08/28 00:18:39;;;;;;;;;0.50;0.50;;;;;18.37;69.45;100966.69;5060097;28;46918;-75
2023/08/28 00:21:04;;;;;;;;;0.50;0.50;;;;;18.31;69.64;100953.59;5056808;28;45353;-75
2023/08/28 00:23:32;;;;;;;;;1.00;1.00;;;;;18.38;69.75;100968.44;5058447;28;45255;-75
2023/08/28 00:25:58;;;;;;;;;1.50;0.50;;;;;18.41;69.88;100970.09;5060299;28;45404;-75
2023/08/28 00:28:23;;;;;;;;;1.50;0.50;;;;;18.36;69.63;100955.97;5059771;28;45428;-75
2023/08/28 00:30:48;;;;;;;;;0.50;0.50;;;;;18.36;69.83;100950.56;5059980;28;57674;-75
2023/08/28 00:33:13;;;;;;;;;1.25;0.50;;;;;18.36;69.67;100950.56;5056118;28;50397;-75
2023/08/28 00:35:40;;;;;;;;;0.50;0.50;;;;;18.38;70.14;100967.59;5050770;28;45564;-74
2023/08/28 00:38:05;;;;;;;;;0.50;0.50;;;;;18.33;70.16;100952.50;5053964;28;46248;-75
2023/08/28 00:40:30;;;;;;;;;1.00;0.25;;;;;18.36;70.03;100955.97;5057895;28;45726;-74
2023/08/28 00:42:56;;;;;;;;;1.00;1.00;;;;;18.32;70.40;100948.06;5054610;28;45780;-75
2023/08/28 00:45:22;;;;;;;;;0.25;0.25;;;;;18.35;70.43;100947.00;5054752;28;45487;-75
2023/08/28 00:47:47;;;;;;;;;1.50;0.50;;;;;18.31;70.40;100942.78;5059373;28;46261;-75
2023/08/28 00:50:13;;;;;;;;;0.50;0.50;;;;;18.33;70.42;100946.25;5059702;28;45333;-74
2023/08/28 00:52:39;;;;;;;;;4.50;1.25;;;;;18.38;69.76;100949.53;5053702;28;46724;-75
2023/08/28 00:55:05;;;;;;;;;1.50;0.50;;;;;18.38;70.26;100943.28;5059691;28;45386;-75
2023/08/28 00:57:31;;;;;;;;;0.75;0.75;;;;;18.37;70.47;100942.38;5059493;28;45446;-75
2023/08/28 00:59:57;;;;;;;;;0.50;0.50;;;;;18.33;70.55;100939.00;5059486;28;45529;-74
2023/08/28 01:02:22;;;;;;;;;0.50;0.50;;;;;18.32;70.46;100928.28;5054086;28;45358;-75
2023/08/28 01:04:48;;;;;;;;;0.75;0.50;;;;;18.32;70.64;100939.09;5057578;28;51784;-75
2023/08/28 01:07:20;;;;;;;;;0.00;0.00;;;;;18.35;70.27;100944.31;5058985;28;53097;-75
2023/08/28 01:10:11;;;;;;;;;0.50;0.50;;;;;18.35;70.08;100943.47;5056842;28;45522;-75
2023/08/28 01:13:02;;;;;;;;;0.75;0.25;;;;;18.29;70.02;100931.16;5056189;28;45346;-75
2023/08/28 01:15:30;;;;;;;;;1.00;1.00;;;;;18.33;70.23;100938.13;5050652;28;45863;-74
2023/08/28 01:17:58;;;;;;;;;1.00;0.75;;;;;18.32;70.77;100939.94;5058558;28;45374;-75
2023/08/28 01:20:26;;;;;;;;;0.50;0.50;;;;;18.31;70.90;100938.22;5059456;28;45527;-75
2023/08/28 01:22:59;;;;;;;;;0.00;0.00;;;;;18.28;70.66;100938.41;5058005;28;45428;-75
2023/08/28 01:25:25;;;;;;;;;1.25;1.25;;;;;18.27;70.20;100938.50;5059342;28;45541;-74
2023/08/28 01:27:51;;;;;;;;;0.25;0.25;;;;;18.25;70.51;100926.94;5059123;28;45415;-74
2023/08/28 01:30:17;;;;;;;;;1.50;1.25;;;;;18.29;70.67;100936.56;5058835;28;45572;-74
2023/08/28 01:32:45;;;;;;;;;0.50;0.50;;;;;18.29;70.10;100931.16;5057784;28;45982;-74
2023/08/28 01:35:25;;;;;;;;;1.25;1.25;;;;;18.24;70.51;100919.78;5060673;28;45327;-74
2023/08/28 01:38:16;;;;;;;;;1.25;1.00;;;;;18.27;70.58;100925.84;5063681;27;46190;-74
2023/08/28 01:41:03;;;;;;;;;2.25;0.50;;;;;18.26;70.44;100923.25;5058173;28;45648;-74
2023/08/28 01:43:35;;;;;;;;;1.75;1.00;;;;;18.24;70.41;100920.66;5051947;28;45556;-74
2023/08/28 01:46:01;;;;;;;;;0.00;0.00;;;;;18.22;70.96;100917.16;5058715;28;46594;-74
2023/08/28 01:48:30;;;;;;;;;1.25;0.50;;;;;18.18;71.15;100914.78;5062680;28;45309;-74
2023/08/28 01:50:55;;;;;;;;;0.00;0.00;;;;;18.09;70.79;100908.97;5056471;28;45525;-74
2023/08/28 01:53:21;;;;;;;;;0.75;0.75;;;;;18.15;70.81;100911.28;5057504;28;45389;-74
2023/08/28 01:56:08;;;;;;;;;1.00;1.00;;;;;18.16;70.72;100914.88;5074650;28;45550;-74
2023/08/28 01:58:45;;;;;;;;;1.00;1.00;;;;;18.19;70.77;100906.53;5056776;28;45712;-74
2023/08/28 02:01:11;;;;;;;;;3.00;1.00;;;;;18.19;70.75;100903.84;5054947;28;45393;-74
2023/08/28 02:03:39;;;;;;;;;2.50;0.25;;;;;18.18;70.98;100907.53;5057985;28;45424;-74
2023/08/28 02:06:08;;;;;;;;;1.00;1.00;;;;;18.20;71.39;100913.69;5058326;28;45559;-74
2023/08/28 02:08:34;;;;;;;;;0.00;0.00;;;;;18.18;70.74;100904.81;5058234;28;45389;-74
2023/08/28 02:10:59;;;;;;;;;2.00;0.75;;;;;18.21;70.59;100904.66;5057814;28;45744;-74
2023/08/28 02:13:25;;;;;;;;;1.50;0.50;;;;;18.21;70.91;100898.34;5056274;28;45557;-74
2023/08/28 02:15:50;;;;;;;;;2.25;2.25;;;;;18.26;71.01;100907.94;5049627;28;45472;-74
2023/08/28 02:18:16;;;;;;;;;1.25;0.25;;;;;18.28;70.71;100905.13;5058122;28;46404;-74
2023/08/28 02:20:41;;;;;;;;;0.00;0.00;;;;;18.29;70.42;100901.44;5054384;28;54937;-74
2023/08/28 02:23:07;;;;;;;;;1.50;0.50;;;;;18.22;70.48;100884.75;5054894;28;58328;-74
2023/08/28 02:25:32;;;;;;;;;0.50;0.50;;;;;18.30;70.69;100901.34;5057188;28;45711;-74
2023/08/28 02:27:58;;;;;;;;;3.00;2.00;;;;;18.29;71.08;100905.03;5057657;28;45610;-74
2023/08/28 02:30:23;;;;;;;;;2.25;0.50;;;;;18.28;70.92;100897.88;5057198;28;45480;-74
2023/08/28 02:32:48;;;;;;;;;0.75;0.75;;;;;18.23;71.31;100893.75;5058104;28;46085;-74
2023/08/28 02:35:13;;;;;;;;;0.00;0.00;;;;;18.22;71.25;100894.69;5058201;28;45477;-74
2023/08/28 02:37:39;;;;;;;;;2.00;1.00;;;;;18.19;71.61;100903.00;5060420;28;45599;-74
2023/08/28 02:40:06;;;;;;;;;1.00;1.00;;;;;18.15;71.26;100897.78;5057689;28;45843;-74
2023/08/28 02:42:32;;;;;;;;;0.50;0.50;;;;;18.18;71.40;100906.66;5056196;28;45344;-74
2023/08/28 02:44:57;;;;;;;;;1.00;1.00;;;;;18.14;71.21;100896.06;5066421;28;45733;-74
2023/08/28 02:47:22;;;;;;;;;1.00;1.00;;;;;18.09;71.49;100898.16;5057434;28;48693;-74
2023/08/28 02:49:48;;;;;;;;;0.50;0.50;;;;;18.16;71.53;100914.88;5058050;28;45442;-74
2023/08/28 02:52:14;;;;;;;;;2.00;0.50;;;;;18.12;71.52;100916.00;5056510;28;45414;-74
2023/08/28 02:54:39;;;;;;;;;1.00;1.00;;;;;18.04;71.43;100897.59;5057596;28;45579;-74
2023/08/28 02:57:04;;;;;;;;;1.25;0.50;;;;;18.04;71.51;100897.59;5056675;28;46138;-74
2023/08/28 02:59:30;;;;;;;;;0.00;0.00;;;;;18.16;71.69;100917.56;5052176;28;45497;-74
2023/08/28 03:01:56;;;;;;;;;1.75;0.50;;;;;18.12;71.83;100910.59;5050409;28;45546;-74
2023/08/28 03:04:21;;;;;;;;;3.00;0.00;;;;;18.14;71.64;100923.06;5042108;28;45612;-74
2023/08/28 03:06:46;;;;;;;;;1.75;1.00;;;;;18.12;71.54;100916.00;5043602;28;57048;-74
2023/08/28 03:09:14;;;;;;;;;0.75;0.75;;;;;18.14;71.37;100920.38;5042640;28;45416;-74
2023/08/28 03:11:40;;;;;;;;;0.00;0.00;;;;;18.16;72.12;100922.97;5047747;28;45375;-74
2023/08/28 03:14:07;;;;;;;;;1.25;1.25;;;;;18.09;71.71;100908.97;5057787;28;45516;-74
2023/08/28 03:16:32;;;;;;;;;1.00;1.00;;;;;18.12;71.67;100906.06;5056881;28;45465;-74
2023/08/28 03:18:58;;;;;;;;;0.50;0.50;;;;;18.15;71.70;100913.97;5068916;28;45422;-74
2023/08/28 03:21:23;;;;;;;;;0.50;0.50;;;;;18.20;71.41;100919.09;5040908;28;45487;-74
2023/08/28 03:23:48;;;;;;;;;1.50;0.00;;;;;18.25;71.29;100921.53;5050667;28;45380;-74
2023/08/28 03:26:14;;;;;;;;;0.75;0.75;;;;;18.14;71.38;100916.78;5041922;28;45585;-74
2023/08/28 03:28:39;;;;;;;;;1.75;1.00;;;;;18.20;71.58;100932.63;5055679;28;45656;-74
2023/08/28 03:31:05;;;;;;;;;0.00;0.00;;;;;18.23;71.18;100935.13;5057040;28;45450;-74
2023/08/28 03:33:31;;;;;;;;;1.25;1.25;;;;;18.20;71.94;100943.41;5043753;28;45333;-73
2023/08/28 03:35:56;;;;;;;;;2.75;0.50;;;;;18.20;71.99;100948.81;5057266;28;45625;-74
2023/08/28 03:38:22;;;;;;;;;0.00;0.00;;;;;18.19;71.66;100943.50;5056704;28;45669;-74
2023/08/28 03:40:47;;;;;;;;;0.50;0.50;;;;;18.18;71.97;100941.78;5058422;28;45451;-74
2023/08/28 03:43:13;;;;;;;;;1.00;0.25;;;;;18.18;71.53;100939.94;5059811;28;45623;-74
2023/08/28 03:45:39;;;;;;;;;1.00;0.75;;;;;18.24;71.28;100949.50;5059535;28;47289;-74
2023/08/28 03:48:05;;;;;;;;;0.75;0.75;;;;;18.27;71.88;100943.91;5058981;28;46274;-74
2023/08/28 03:50:30;;;;;;;;;0.50;0.25;;;;;18.18;71.39;100923.75;5060101;28;45571;-74
2023/08/28 03:52:59;;;;;;;;;0.50;0.50;;;;;18.22;71.43;100924.41;5058611;28;45556;-74
2023/08/28 03:55:27;;;;;;;;;0.50;0.50;;;;;18.26;71.61;100932.25;5060590;28;46427;-74
2023/08/28 03:57:52;;;;;;;;;0.00;0.00;;;;;18.28;72.15;100941.13;5060742;28;45577;-74
2023/08/28 04:00:18;;;;;;;;;0.00;0.00;;;;;18.21;71.80;100933.47;5060397;28;45350;-74
2023/08/28 04:02:47;;;;;;;;;0.50;0.50;;;;;18.21;71.90;100933.47;5055674;28;45338;-74
2023/08/28 04:05:13;;;;;;;;;1.75;0.50;;;;;18.24;72.27;100941.41;5060590;28;45434;-74
2023/08/28 04:07:40;;;;;;;;;1.00;1.00;;;;;18.18;72.51;100947.19;5060150;28;45571;-74
2023/08/28 04:10:06;;;;;;;;;2.50;1.50;;;;;18.15;71.74;100946.41;5060986;28;45392;-74
2023/08/28 04:12:32;;;;;;;;;0.75;0.25;;;;;18.21;72.12;100955.97;5058473;28;45427;-75
2023/08/28 04:14:57;;;;;;;;;0.00;0.00;;;;;18.23;72.05;100956.75;5060476;28;45489;-74
2023/08/28 04:17:23;;;;;;;;;1.25;1.25;;;;;18.23;72.09;100955.88;5060050;28;45386;-74
2023/08/28 04:19:51;;;;;;;;;2.00;2.00;;;;;18.18;72.67;100944.50;5059367;28;45802;-74
2023/08/28 04:22:17;;;;;;;;;1.00;1.00;;;;;18.22;72.10;100954.13;5059137;28;45657;-74
2023/08/28 04:24:44;;;;;;;;;2.75;1.00;;;;;18.25;72.17;100954.81;5059736;28;45739;-74
2023/08/28 04:27:09;;;;;;;;;0.25;0.25;;;;;18.25;72.48;100952.13;5075715;28;45647;-74
2023/08/28 04:29:35;;;;;;;;;0.25;0.25;;;;;18.24;72.10;100942.28;5058168;28;57503;-74
2023/08/28 04:32:00;;;;;;;;;0.50;0.50;;;;;18.30;71.78;100946.44;5059465;28;45351;-74
2023/08/28 04:34:25;;;;;;;;;1.50;0.50;;;;;18.32;72.41;100939.94;5060075;28;50364;-74
2023/08/28 04:36:51;;;;;;;;;3.00;1.50;;;;;18.29;72.20;100934.75;5059206;28;54732;-74
2023/08/28 04:39:16;;;;;;;;;0.50;0.50;;;;;18.32;72.39;100939.09;5059797;28;45548;-74
2023/08/28 04:41:41;;;;;;;;;2.00;0.50;;;;;18.35;72.23;100936.22;5058602;28;48653;-74
2023/08/28 04:44:06;;;;;;;;;0.50;0.50;;;;;18.27;71.76;100922.28;5057231;28;57137;-74
2023/08/28 04:46:32;;;;;;;;;1.75;1.50;;;;;18.34;72.50;100931.75;5059961;28;45460;-74
2023/08/28 04:48:57;;;;;;;;;0.25;0.25;;;;;18.29;72.31;100925.75;5058479;28;45585;-74
2023/08/28 04:51:22;;;;;;;;;1.25;1.25;;;;;18.33;72.76;100927.34;5074529;28;45582;-74
2023/08/28 04:53:48;;;;;;;;;1.75;0.25;;;;;18.31;72.45;100932.81;5059053;28;54974;-74
2023/08/28 04:56:13;;;;;;;;;2.00;1.25;;;;;18.29;72.42;100923.97;5059512;28;45660;-74
2023/08/28 04:58:38;;;;;;;;;0.50;0.50;;;;;18.31;71.97;100934.66;5059731;28;45721;-74
2023/08/28 05:01:04;;;;;;;;;0.50;0.50;;;;;18.25;72.37;100921.53;5056235;28;45521;-74
2023/08/28 05:03:29;;;;;;;;;0.50;0.50;;;;;18.30;72.12;100928.38;5056460;28;46204;-74
2023/08/28 05:05:54;;;;;;;;;0.75;0.50;;;;;18.28;72.15;100915.94;5059620;28;53998;-74
2023/08/28 05:08:20;;;;;;;;;1.50;1.50;;;;;18.22;72.07;100909.06;5058844;28;46438;-74
2023/08/28 05:10:45;;;;;;;;;0.75;0.75;;;;;18.27;72.37;100914.19;5074491;27;45493;-74
2023/08/28 05:13:11;;;;;;;;;1.50;0.50;;;;;18.26;72.54;100907.94;5058349;28;47078;-74
2023/08/28 05:15:36;;;;;;;;;2.00;0.75;;;;;18.28;72.50;100911.41;5058949;28;53278;-74
2023/08/28 05:18:01;;;;;;;;;1.00;1.00;;;;;18.31;71.97;100915.75;5059363;28;45385;-74
2023/08/28 05:20:28;;;;;;;;;1.50;0.75;;;;;18.29;71.73;100909.56;5057654;28;45598;-74
2023/08/28 05:22:54;;;;;;;;;1.25;1.25;;;;;18.33;72.16;100911.13;5057063;28;45414;-74
2023/08/28 05:25:19;;;;;;;;;1.25;0.75;;;;;18.33;72.16;100919.22;5059212;28;45482;-74
2023/08/28 05:27:44;;;;;;;;;0.00;0.00;;;;;18.31;72.03;100924.72;5049905;28;46786;-74
2023/08/28 05:30:10;;;;;;;;;1.50;1.50;;;;;18.34;72.05;100929.06;5052142;28;45465;-74
2023/08/28 05:32:36;;;;;;;;;2.50;1.25;;;;;18.32;72.52;100936.41;5057590;28;46329;-74
2023/08/28 05:35:01;;;;;;;;;0.75;0.75;;;;;18.28;72.20;100922.22;5058352;28;50962;-74
2023/08/28 05:37:26;;;;;;;;;1.00;1.00;;;;;18.29;72.17;100923.97;5058386;28;45561;-74
2023/08/28 05:39:52;;;;;;;;;0.50;0.50;;;;;18.33;72.22;100930.91;5057564;28;45392;-74
2023/08/28 05:42:18;;;;;;;;;2.00;2.00;;;;;18.32;72.35;100920.19;5057992;28;45485;-74
2023/08/28 05:44:45;;;;;;;;;0.25;0.25;;;;;18.24;72.07;100907.16;5057462;28;45388;-75
2023/08/28 05:47:11;;;;;;;;;1.00;0.50;;;;;18.31;72.44;100929.28;5056746;28;45514;-81
2023/08/28 05:49:36;;;;;;;;;0.50;0.50;;;;;18.26;72.42;100912.44;5057082;28;45382;-75
2023/08/28 05:52:01;;;;;;;;;2.25;1.00;;;;;18.26;72.11;100907.94;5056492;28;45750;-75
2023/08/28 05:54:27;;;;;;;;;1.50;1.50;;;;;18.31;72.59;100918.47;5057542;28;45706;-76
2023/08/28 05:56:52;;;;;;;;;2.25;1.25;;;;;18.29;72.67;100920.38;5059391;28;45724;-77
2023/08/28 05:59:17;;;;;;;;;0.50;0.50;;;;;18.24;72.89;100926.06;5057144;28;45524;-76
2023/08/28 06:01:43;;;;;;;;;3.00;1.00;;;;;18.22;72.74;100919.88;5053265;28;45515;-78
2023/08/28 06:04:08;;;;;;;;;0.25;0.25;;;;;18.23;72.85;100913.53;5060090;28;45683;-77
2023/08/28 06:06:33;;;;;;;;;0.75;0.50;;;;;18.23;72.46;100902.72;5057461;28;49549;-76
2023/08/28 06:09:03;;;;;;;;;1.00;1.00;;;;;18.23;72.42;100897.31;5060511;28;45488;-77
2023/08/28 06:11:29;;;;;;;;;1.50;0.50;;;;;18.27;72.86;100906.94;5056738;28;47288;-77
2023/08/28 06:13:54;;;;;;;;;0.75;0.75;;;;;18.20;73.26;100893.94;5055455;28;45414;-77
2023/08/28 06:16:20;;;;;;;;;0.50;0.50;;;;;18.22;72.96;100892.00;5062845;28;45373;-77
2023/08/28 06:18:45;;;;;;;;;0.25;0.00;;;;;18.28;72.78;100902.44;5063225;28;45799;-77
2023/08/28 06:21:10;;;;;;;;;0.75;0.75;;;;;18.22;73.27;100897.41;5055161;28;45848;-77
2023/08/28 06:23:35;;;;;;;;;1.00;1.00;;;;;18.25;72.88;100910.72;5053469;28;45756;-77
2023/08/28 06:26:01;;;;;;;;;1.25;1.25;;;;;18.28;73.08;100914.09;5059571;28;45334;-77
2023/08/28 06:28:28;;;;;;;;;1.75;1.75;;;;;18.26;73.11;100913.34;5058167;28;45714;-78
2023/08/28 06:30:53;;;;;;;;;1.75;1.75;;;;;18.28;72.75;100907.84;5052018;28;48424;-76
2023/08/28 06:33:18;;;;;;;;;0.75;0.75;;;;;18.28;73.19;100906.00;5052007;28;49069;-74
2023/08/28 06:35:44;;;;;;;;;1.00;1.00;;;;;18.30;72.88;100906.75;5071866;28;53404;-74
2023/08/28 06:38:09;;;;;;;;;1.25;1.25;;;;;18.25;72.93;100889.97;5057444;28;45576;-74
2023/08/28 06:40:34;;;;;;;;;1.25;1.25;;;;;18.32;73.54;100902.13;5066345;28;47065;-74
2023/08/28 06:43:00;;;;;;;;;1.50;1.50;;;;;18.38;73.15;100910.84;5057701;28;45838;-74
2023/08/28 06:45:25;;;;;;;;;1.50;1.50;;;;;18.33;73.24;100903.88;5058414;28;45435;-74
2023/08/28 06:47:50;;;;;;;;;3.00;1.75;;;;;18.32;73.24;100904.81;5052656;28;45328;-75
2023/08/28 06:50:16;;;;;;;;;1.50;0.50;;;;;18.38;73.21;100908.13;5054898;28;62085;-74
2023/08/28 06:52:41;;;;;;;;;1.00;0.50;;;;;18.30;73.04;100889.69;5067491;28;50014;-75
2023/08/28 06:55:07;;;;;;;;;1.50;1.50;;;;;18.35;73.29;100898.38;5055776;28;45420;-75
2023/08/28 06:57:32;;;;;;;;;1.75;1.00;;;;;18.40;73.04;100907.06;5054584;28;45314;-75
2023/08/28 06:59:57;;;;;;;;;3.00;2.00;;;;;18.40;73.21;100893.53;5055625;28;46978;-75
2023/08/28 07:02:22;;;;;;;;;0.50;0.50;;;;;18.41;73.18;100898.00;5050073;28;47497;-75
2023/08/28 07:04:48;;;;;;;;;2.25;1.25;;;;;18.46;73.45;100903.97;5054973;28;45389;-75
2023/08/28 07:07:18;;;;;;;;;0.25;0.25;;;;;18.49;72.92;100892.97;5054260;28;46053;-75
2023/08/28 07:09:43;;;;;;;;;3.00;2.00;;;;;18.43;73.02;100879.84;5054751;28;46941;-75
2023/08/28 07:12:08;;;;;;;;;2.50;1.75;;;;;18.45;73.42;100879.75;5056335;28;45398;-75
2023/08/28 07:14:34;;;;;;;;;2.00;1.75;;;;;18.52;73.38;100887.34;5059073;28;45392;-75
2023/08/28 07:17:00;;;;;;;;;2.00;0.75;;;;;18.55;73.44;100891.72;5052452;28;45733;-67
2023/08/28 07:19:26;;;;;;;;;1.00;0.50;;;;;18.51;73.39;100888.34;5055497;28;45509;-67
2023/08/28 07:21:51;;;;;;;;;3.00;1.75;;;;;18.49;74.01;100892.97;5055580;28;53432;-66
2023/08/28 07:24:16;;;;;;;;;0.75;0.75;;;;;18.44;73.79;100887.00;5057911;28;45813;-67
2023/08/28 07:26:41;;;;;;;;;2.75;2.00;;;;;18.49;74.16;100895.69;5055212;28;45626;-67
2023/08/28 07:29:07;;;;;;;;;1.00;1.00;;;;;18.48;73.62;100893.94;5057890;28;46381;-67
2023/08/28 07:31:32;;;;;;;;;3.00;2.00;;;;;18.52;74.21;100898.16;5059681;28;45324;-67
2023/08/28 07:33:59;;;;;;;;;1.75;1.00;;;;;18.43;73.75;100877.13;5067437;28;45632;-67
2023/08/28 07:36:24;;;;;;;;;1.75;1.25;;;;;18.56;73.94;100890.75;5059912;28;45612;-69
2023/08/28 07:38:50;;;;;;;;;5.50;2.50;;;;;18.57;73.84;100887.06;5057134;28;45311;-67
2023/08/28 07:41:16;;;;;;;;;3.25;2.50;;;;;18.63;73.77;100891.22;5057995;28;45705;-67
2023/08/28 07:43:42;;;;;;;;;2.00;2.00;;;;;18.66;73.38;100893.72;5055367;28;45532;-68
2023/08/28 07:46:08;;;;;;;;;2.75;1.50;;;;;18.66;73.90;100888.31;5055943;28;45535;-68
2023/08/28 07:48:33;;;;;;;;;3.50;2.25;;;;;18.71;73.61;100888.91;5059458;28;46302;-66
2023/08/28 07:50:58;;;;;;;;;2.00;1.75;;;;;18.75;74.18;100894.97;5056287;28;45975;-66
2023/08/28 07:53:24;;;;;;;;;2.50;2.50;;;;;18.72;74.32;100893.34;5063328;28;48488;-66
2023/08/28 07:55:49;;;;;;;;;4.00;4.00;;;;;18.68;74.29;100891.81;5056936;28;52501;-66
2023/08/28 07:58:14;;;;;;;;;3.50;3.00;;;;;18.67;73.98;100895.47;5074824;28;48090;-65
2023/08/28 08:00:40;;;;;;;;;2.50;2.50;;;;;18.68;73.80;100892.66;5068939;28;45342;-66
2023/08/28 08:03:06;;;;;;;;;3.00;3.00;;;;;18.74;74.49;100906.75;5055205;28;45547;-66
2023/08/28 08:05:31;;;;;;;;;3.50;3.50;;;;;18.68;74.14;100892.66;5082302;27;59001;-66
2023/08/28 08:07:57;;;;;;;;;4.00;3.75;;;;;18.69;74.41;100897.13;5060894;28;48292;-66
2023/08/28 08:10:23;;;;;;;;;4.25;3.00;;;;;18.77;74.03;100906.56;5055838;28;45388;-66
2023/08/28 08:12:48;;;;;;;;;5.50;3.50;;;;;18.80;74.35;100909.94;5058444;28;45555;-66
2023/08/28 08:15:13;;;;;;;;;3.75;3.75;;;;;18.80;74.05;100896.41;5057512;28;51561;-66
2023/08/28 08:17:39;;;;;;;;;4.00;4.00;;;;;18.81;74.54;100895.47;5060106;28;45980;-66
2023/08/28 08:20:11;;;;;;;;;2.50;2.50;;;;;18.87;74.61;100905.88;5059466;28;45479;-66
2023/08/28 08:22:37;;;;;;;;;4.00;4.00;;;;;18.88;74.31;100902.22;5064885;27;45841;-66
2023/08/28 08:25:03;;;;;;;;;2.25;2.25;;;;;18.92;74.29;100907.44;5072955;28;45602;-67
2023/08/28 08:27:29;;;;;;;;;3.75;3.75;;;;;18.93;74.21;100903.75;5058391;28;46119;-68
2023/08/28 08:29:54;;;;;;;;;2.75;2.75;;;;;18.90;74.24;100901.28;5058783;28;45615;-66
2023/08/28 08:32:19;;;;;;;;;4.00;4.00;;;;;18.96;74.18;100914.38;5059013;28;45683;-66
2023/08/28 08:34:45;;;;;;;;;3.50;3.50;;;;;19.01;74.46;100923.06;5049164;28;50635;-67
2023/08/28 08:37:10;;;;;;;;;4.00;4.00;;;;;19.02;74.03;100917.56;5055850;28;46206;-66
2023/08/28 08:39:35;;;;;;;;;3.00;2.75;;;;;19.00;73.49;100908.69;5050625;28;50568;-66
2023/08/28 08:42:01;;;;;;;;;3.00;3.00;;;;;19.04;74.58;100914.75;5069733;28;45551;-66
2023/08/28 08:44:26;;;;;;;;;4.00;4.00;;;;;19.11;74.21;100916.09;5059664;28;45555;-66
2023/08/28 08:46:54;;;;;;;;;4.00;4.00;;;;;19.15;73.82;100920.34;5058670;28;45447;-66
2023/08/28 08:49:25;;;;;;;;;4.00;3.00;;;;;19.16;73.39;100913.06;5061819;28;45789;-66
2023/08/28 08:51:52;;;;;;;;;4.00;3.00;;;;;19.03;73.31;100903.06;5056532;28;45625;-66
2023/08/28 08:54:23;;;;;;;;;4.50;4.50;;;;;19.10;73.67;100908.94;5057522;28;45452;-66
2023/08/28 08:56:51;;;;;;;;;4.75;4.00;;;;;19.17;73.83;100912.13;5057366;28;45606;-66
2023/08/28 08:59:17;;;;;;;;;3.00;3.00;;;;;19.18;73.22;100916.56;5058744;28;45500;-66
2023/08/28 09:01:43;;;;;;;;;5.75;5.00;;;;;19.14;73.06;100905.06;5047950;28;46025;-66
2023/08/28 09:04:09;;;;;;;;;4.00;4.00;;;;;19.19;73.49;100915.59;5074762;28;45654;-66
2023/08/28 09:06:37;;;;;;;;;4.00;4.00;;;;;19.06;73.28;100889.34;5059761;28;46011;-66
2023/08/28 09:09:05;;;;;;;;;4.75;4.75;;;;;19.27;73.09;100915.09;5057880;28;45348;-66
2023/08/28 09:11:31;;;;;;;;;6.00;6.00;;;;;19.23;73.56;100904.47;5056867;28;45308;-66
2023/08/28 09:13:56;;;;;;;;;8.75;7.50;;;;;19.34;73.32;100916.41;5058730;28;45346;-66
2023/08/28 09:16:22;;;;;;;;;6.75;5.25;;;;;19.28;73.46;100909.59;5056689;28;48839;-66
2023/08/28 09:18:48;;;;;;;;;5.00;5.00;;;;;19.33;73.48;100910.16;5058492;28;45495;-66
2023/08/28 09:21:14;;;;;;;;;4.75;4.00;;;;;19.33;73.52;100902.03;5057328;28;45511;-66
2023/08/28 09:23:44;;;;;;;;;4.25;3.25;;;;;19.42;73.38;100914.94;5057836;28;45528;-66
2023/08/28 09:26:19;;;;;;;;;5.50;5.50;;;;;19.46;73.20;100912.88;5055319;28;46099;-66
2023/08/28 09:29:01;;;;;;;;;3.25;3.00;;;;;19.42;73.16;100904.09;5053914;28;45740;-66
2023/08/28 09:31:30;;;;;;;;;4.00;4.00;;;;;19.45;73.45;100908.44;5052799;28;45578;-66
2023/08/28 09:33:56;;;;;;;;;4.75;4.75;;;;;19.46;73.09;100899.34;5070995;27;45537;-71
2023/08/28 09:36:21;;;;;;;;;3.50;3.50;;;;;19.52;72.72;100906.19;5057734;28;45290;-65
2023/08/28 09:38:47;;;;;;;;;5.00;5.00;;;;;19.52;72.11;100895.38;5058755;28;45389;-66
2023/08/28 09:41:12;;;;;;;;;4.25;4.25;;;;;19.58;72.47;100895.81;5063011;28;45633;-66
2023/08/28 09:43:37;;;;;;;;;4.50;4.50;;;;;19.57;72.39;100891.38;5058498;28;45433;-66
2023/08/28 09:46:05;;;;;;;;;5.00;5.00;;;;;19.65;72.23;100895.41;5057684;28;45474;-66
2023/08/28 09:48:38;;;;;;;;;5.00;4.00;;;;;19.61;72.14;100887.50;5074167;28;45389;-66
2023/08/28 09:51:06;;;;;;;;;5.75;5.00;;;;;19.73;71.53;100901.16;5057739;28;45366;-66
2023/08/28 09:53:32;;;;;;;;;4.00;4.00;;;;;19.77;71.03;100900.00;5057655;28;45747;-66
2023/08/28 09:55:58;;;;;;;;;3.25;3.25;;;;;19.79;70.80;100903.47;5073935;27;45473;-66
2023/08/28 09:58:26;;;;;;;;;3.50;3.50;;;;;19.81;70.76;100898.81;5060743;27;45346;-66
2023/08/28 10:00:53;;;;;;;;;2.00;1.00;;;;;19.84;71.22;100895.03;5055954;28;45362;-66
2023/08/28 10:03:21;;;;;;;;;4.00;4.00;;;;;19.85;71.00;100884.09;5056437;28;45319;-66
2023/08/28 10:05:47;;;;;;;;;5.00;4.75;;;;;19.86;71.13;100887.66;5053961;28;45856;-67
2023/08/28 10:08:14;;;;;;;;;3.25;3.25;;;;;19.90;71.03;100891.91;5056692;28;45911;-66
2023/08/28 10:10:48;;;;;;;;;5.50;3.75;;;;;19.94;71.02;100896.13;5055498;28;45711;-67
2023/08/28 10:13:20;;;;;;;;;3.50;3.50;;;;;19.95;70.77;100896.03;5057688;28;45845;-68
2023/08/28 10:16:00;;;;;;;;;4.00;2.25;;;;;19.95;70.29;100893.31;5056371;28;45584;-67
2023/08/28 10:18:35;;;;;;;;;4.00;4.00;;;;;19.96;70.52;100892.38;5055291;28;45627;-66
2023/08/28 10:21:01;;;;;;;;;4.50;3.50;;;;;19.97;70.59;100899.50;5061621;28;45429;-66
2023/08/28 10:23:27;;;;;;;;;3.00;3.00;;;;;19.99;71.00;100900.25;5072490;28;45717;-66
2023/08/28 10:25:54;;;;;;;;;4.00;4.00;;;;;19.97;71.20;100898.63;5057403;28;45495;-69
2023/08/28 10:28:21;;;;;;;;;3.00;3.00;;;;;19.97;70.60;100904.06;5057213;28;45425;-68
2023/08/28 10:30:50;;;;;;;;;3.75;3.75;;;;;19.96;71.66;100910.44;5055963;28;45537;-68
2023/08/28 10:33:16;;;;;;;;;5.00;3.00;;;;;19.92;72.77;100908.94;5056990;28;45314;-68
2023/08/28 10:35:44;;;;;;;;;3.00;2.25;;;;;19.94;73.41;100912.41;5057367;28;45629;-68
2023/08/28 10:38:10;;;;;;;;;5.25;4.25;;;;;19.90;73.72;100910.88;5056185;28;45431;-68
2023/08/28 10:40:36;;;;;;;;;4.50;4.50;;;;;19.89;73.84;100907.28;5056514;28;45728;-66
2023/08/28 10:43:04;;;;;;;;;3.00;3.00;;;;;19.85;74.41;100910.34;5056356;28;45481;-65
2023/08/28 10:45:30;;;;;;;;;3.00;3.00;;;;;19.89;74.10;100919.97;5055748;28;45694;-67
2023/08/28 10:47:55;;;;;;;;;3.00;3.00;;;;;19.82;74.43;100914.09;5059106;28;45439;-67
2023/08/28 10:50:21;;;;;;;;;4.25;3.00;;;;;19.78;74.39;100909.88;5058303;28;45975;-67
2023/08/28 10:52:46;;;;;;;;;5.00;5.00;;;;;19.81;74.46;100917.78;5060259;28;45436;-67
2023/08/28 10:55:18;;;;;;;;;5.00;4.25;;;;;19.82;74.48;100913.25;5061705;28;45448;-67
2023/08/28 10:57:49;;;;;;;;;4.00;4.00;;;;;19.85;74.65;100916.59;5061094;28;45552;-67
2023/08/28 11:00:18;;;;;;;;;3.25;3.25;;;;;19.85;74.25;100911.19;5059543;28;45539;-67
2023/08/28 11:03:04;;;;;;;;;4.00;4.00;;;;;19.81;73.26;100906.94;5058517;28;45725;-67
2023/08/28 11:05:29;;;;;;;;;3.00;3.00;;;;;19.76;74.18;100903.69;5072104;28;46367;-67
2023/08/28 11:07:55;;;;;;;;;4.25;3.00;;;;;19.80;73.95;100916.06;5061979;28;45271;-67
2023/08/28 11:10:21;;;;;;;;;4.25;4.25;;;;;19.77;73.61;100903.59;5076117;28;45655;-67
2023/08/28 11:12:53;;;;;;;;;3.00;2.00;;;;;19.83;73.57;100906.84;5048028;28;46135;-67
2023/08/28 11:15:29;;;;;;;;;3.00;3.00;;;;;19.82;73.24;100894.28;5056977;28;47351;-67
2023/08/28 11:18:19;;;;;;;;;4.50;4.50;;;;;19.92;73.64;100906.22;5055830;28;46063;-66
2023/08/28 11:20:52;;;;;;;;;3.00;3.00;;;;;19.93;73.44;100898.00;5068332;28;45813;-67
2023/08/28 11:23:33;;;;;;;;;4.25;3.25;;;;;19.96;73.49;100894.19;5055502;28;45481;-67